sensor_id;sensor_type;location;lat;lon;timestamp;pressure;altitude;pressure_sealevel;temperature;humidity
59337;BME280;45115;52.002;4.686;2023-05-22T00:00:07;101707.28;;;12.92;100.00
59337;BME280;45115;52.002;4.686;2023-05-22T00:02:38;101703.78;;;12.90;100.00
59337;BME280;45115;52.002;4.686;2023-05-22T00:05:08;101701.78;;;12.92;100.00
59337;BME280;45115;52.002;4.686;2023-05-22T00:07:35;101701.63;;;12.93;100.00
59337;BME280;45115;52.002;4.686;2023-05-22T00:10:02;101704.66;;;12.90;100.00
59337;BME280;45115;52.002;4.686;2023-05-22T00:12:29;101707.84;;;12.86;100.00
59337;BME280;45115;52.002;4.686;2023-05-22T00:14:55;101717.53;;;12.80;100.00
59337;BME280;45115;52.002;4.686;2023-05-22T00:17:24;101708.53;;;12.78;100.00
59337;BME280;45115;52.002;4.686;2023-05-22T00:19:50;101720.66;;;12.76;100.00
59337;BME280;45115;52.002;4.686;2023-05-22T00:22:18;101724.72;;;12.72;100.00
59337;BME280;45115;52.002;4.686;2023-05-22T00:24:45;101718.50;;;12.79;100.00
59337;BME280;45115;52.002;4.686;2023-05-22T00:27:11;101725.25;;;12.96;100.00
59337;BME280;45115;52.002;4.686;2023-05-22T00:29:38;101732.72;;;13.05;100.00
59337;BME280;45115;52.002;4.686;2023-05-22T00:32:05;101716.22;;;13.05;100.00
59337;BME280;45115;52.002;4.686;2023-05-22T00:34:33;101713.44;;;13.05;100.00
59337;BME280;45115;52.002;4.686;2023-05-22T00:37:00;101701.09;;;12.99;100.00
59337;BME280;45115;52.002;4.686;2023-05-22T00:39:27;101706.19;;;13.04;100.00
59337;BME280;45115;52.002;4.686;2023-05-22T00:41:53;101702.22;;;12.97;100.00
59337;BME280;45115;52.002;4.686;2023-05-22T00:44:20;101698.75;;;12.95;100.00
59337;BME280;45115;52.002;4.686;2023-05-22T00:46:47;101689.91;;;12.91;100.00
59337;BME280;45115;52.002;4.686;2023-05-22T00:49:14;101683.25;;;12.94;100.00
59337;BME280;45115;52.002;4.686;2023-05-22T00:51:42;101684.75;;;12.98;100.00
59337;BME280;45115;52.002;4.686;2023-05-22T00:54:09;101677.47;;;12.87;100.00
59337;BME280;45115;52.002;4.686;2023-05-22T00:56:36;101669.66;;;12.92;100.00
59337;BME280;45115;52.002;4.686;2023-05-22T00:59:02;101673.41;;;12.91;100.00
59337;BME280;45115;52.002;4.686;2023-05-22T01:01:29;101667.44;;;12.86;100.00
59337;BME280;45115;52.002;4.686;2023-05-22T01:03:58;101653.56;;;12.78;100.00
59337;BME280;45115;52.002;4.686;2023-05-22T01:06:26;101647.31;;;12.76;100.00
59337;BME280;45115;52.002;4.686;2023-05-22T01:08:54;101654.53;;;12.77;100.00
59337;BME280;45115;52.002;4.686;2023-05-22T01:11:26;101648.78;;;12.80;100.00
59337;BME280;45115;52.002;4.686;2023-05-22T01:13:59;101651.25;;;12.93;100.00
59337;BME280;45115;52.002;4.686;2023-05-22T01:16:33;101653.31;;;13.00;100.00
59337;BME280;45115;52.002;4.686;2023-05-22T01:19:22;101640.53;;;12.90;100.00
59337;BME280;45115;52.002;4.686;2023-05-22T01:22:02;101641.88;;;12.86;100.00
59337;BME280;45115;52.002;4.686;2023-05-22T01:25:05;101640.09;;;12.85;100.00
59337;BME280;45115;52.002;4.686;2023-05-22T01:28:07;101638.78;;;12.79;100.00
59337;BME280;45115;52.002;4.686;2023-05-22T01:30:48;101643.44;;;12.79;100.00
59337;BME280;45115;52.002;4.686;2023-05-22T01:33:16;101638.94;;;12.78;100.00
59337;BME280;45115;52.002;4.686;2023-05-22T01:35:47;101628.38;;;12.83;100.00
59337;BME280;45115;52.002;4.686;2023-05-22T01:38:16;101623.00;;;12.81;100.00
59337;BME280;45115;52.002;4.686;2023-05-22T01:40:44;101630.69;;;12.78;100.00
59337;BME280;45115;52.002;4.686;2023-05-22T01:43:12;101621.09;;;12.72;100.00
59337;BME280;45115;52.002;4.686;2023-05-22T01:45:38;101612.41;;;12.67;100.00
59337;BME280;45115;52.002;4.686;2023-05-22T01:48:07;101617.63;;;12.70;100.00
59337;BME280;45115;52.002;4.686;2023-05-22T01:50:34;101620.66;;;12.67;100.00
59337;BME280;45115;52.002;4.686;2023-05-22T01:53:07;101614.84;;;12.61;100.00
59337;BME280;45115;52.002;4.686;2023-05-22T01:55:41;101630.19;;;12.63;100.00
59337;BME280;45115;52.002;4.686;2023-05-22T01:58:15;101621.84;;;12.74;100.00
59337;BME280;45115;52.002;4.686;2023-05-22T02:00:45;101629.78;;;12.68;100.00
59337;BME280;45115;52.002;4.686;2023-05-22T02:03:16;101621.34;;;12.60;100.00
59337;BME280;45115;52.002;4.686;2023-05-22T02:05:46;101611.97;;;12.62;100.00
59337;BME280;45115;52.002;4.686;2023-05-22T02:08:15;101607.59;;;12.60;100.00
59337;BME280;45115;52.002;4.686;2023-05-22T02:10:43;101606.03;;;12.67;100.00
59337;BME280;45115;52.002;4.686;2023-05-22T02:13:11;101608.34;;;12.62;100.00
59337;BME280;45115;52.002;4.686;2023-05-22T02:15:38;101609.66;;;12.58;100.00
59337;BME280;45115;52.002;4.686;2023-05-22T02:18:09;101604.97;;;12.49;100.00
59337;BME280;45115;52.002;4.686;2023-05-22T02:20:38;101605.13;;;12.47;100.00
59337;BME280;45115;52.002;4.686;2023-05-22T02:23:05;101599.28;;;12.41;100.00
59337;BME280;45115;52.002;4.686;2023-05-22T02:25:32;101605.63;;;12.31;100.00
59337;BME280;45115;52.002;4.686;2023-05-22T02:27:59;101611.84;;;12.33;100.00
59337;BME280;45115;52.002;4.686;2023-05-22T02:30:26;101610.03;;;12.23;100.00
59337;BME280;45115;52.002;4.686;2023-05-22T02:32:53;101615.00;;;12.29;100.00
59337;BME280;45115;52.002;4.686;2023-05-22T02:35:22;101621.72;;;12.46;100.00
59337;BME280;45115;52.002;4.686;2023-05-22T02:37:51;101625.34;;;12.46;100.00
59337;BME280;45115;52.002;4.686;2023-05-22T02:40:18;101630.97;;;12.45;100.00
59337;BME280;45115;52.002;4.686;2023-05-22T02:42:45;101629.47;;;12.31;100.00
59337;BME280;45115;52.002;4.686;2023-05-22T02:45:11;101617.38;;;12.43;100.00
59337;BME280;45115;52.002;4.686;2023-05-22T02:47:39;101622.00;;;12.43;100.00
59337;BME280;45115;52.002;4.686;2023-05-22T02:50:06;101618.38;;;12.42;100.00
59337;BME280;45115;52.002;4.686;2023-05-22T02:52:33;101613.31;;;12.38;100.00
59337;BME280;45115;52.002;4.686;2023-05-22T02:55:02;101604.16;;;12.27;100.00
59337;BME280;45115;52.002;4.686;2023-05-22T02:57:29;101608.91;;;12.25;100.00
59337;BME280;45115;52.002;4.686;2023-05-22T02:59:57;101603.50;;;12.14;100.00
59337;BME280;45115;52.002;4.686;2023-05-22T03:02:24;101608.19;;;12.23;100.00
59337;BME280;45115;52.002;4.686;2023-05-22T03:04:52;101600.38;;;12.19;100.00
59337;BME280;45115;52.002;4.686;2023-05-22T03:07:19;101604.09;;;12.18;100.00
59337;BME280;45115;52.002;4.686;2023-05-22T03:09:46;101603.00;;;12.30;100.00
59337;BME280;45115;52.002;4.686;2023-05-22T03:12:14;101606.03;;;12.27;100.00
59337;BME280;45115;52.002;4.686;2023-05-22T03:14:41;101597.75;;;12.17;100.00
59337;BME280;45115;52.002;4.686;2023-05-22T03:17:07;101598.34;;;12.21;100.00
59337;BME280;45115;52.002;4.686;2023-05-22T03:19:34;101599.94;;;12.23;100.00
59337;BME280;45115;52.002;4.686;2023-05-22T03:22:01;101609.78;;;12.26;100.00
59337;BME280;45115;52.002;4.686;2023-05-22T03:24:28;101596.06;;;12.26;100.00
59337;BME280;45115;52.002;4.686;2023-05-22T03:26:55;101603.00;;;12.30;100.00
59337;BME280;45115;52.002;4.686;2023-05-22T03:29:33;101599.06;;;12.23;100.00
59337;BME280;45115;52.002;4.686;2023-05-22T03:32:00;101588.31;;;12.10;100.00
59337;BME280;45115;52.002;4.686;2023-05-22T03:34:28;101599.69;;;12.06;100.00
59337;BME280;45115;52.002;4.686;2023-05-22T03:36:56;101596.13;;;12.15;100.00
59337;BME280;45115;52.002;4.686;2023-05-22T03:39:23;101593.13;;;12.18;100.00
59337;BME280;45115;52.002;4.686;2023-05-22T03:41:58;101586.63;;;12.19;100.00
59337;BME280;45115;52.002;4.686;2023-05-22T03:44:26;101596.88;;;12.17;100.00
59337;BME280;45115;52.002;4.686;2023-05-22T03:46:54;101588.50;;;12.18;100.00
59337;BME280;45115;52.002;4.686;2023-05-22T03:49:21;101585.06;;;12.26;100.00
59337;BME280;45115;52.002;4.686;2023-05-22T03:51:47;101589.59;;;12.37;100.00
59337;BME280;45115;52.002;4.686;2023-05-22T03:54:14;101588.88;;;12.34;100.00
59337;BME280;45115;52.002;4.686;2023-05-22T03:56:41;101585.69;;;12.39;100.00
59337;BME280;45115;52.002;4.686;2023-05-22T03:59:08;101595.25;;;12.45;100.00
59337;BME280;45115;52.002;4.686;2023-05-22T04:01:35;101590.94;;;12.52;100.00
59337;BME280;45115;52.002;4.686;2023-05-22T04:04:05;101591.44;;;12.66;100.00
59337;BME280;45115;52.002;4.686;2023-05-22T04:06:31;101592.75;;;12.72;100.00
59337;BME280;45115;52.002;4.686;2023-05-22T04:08:59;101590.47;;;12.77;100.00
59337;BME280;45115;52.002;4.686;2023-05-22T04:11:26;101584.66;;;12.80;100.00
59337;BME280;45115;52.002;4.686;2023-05-22T04:13:54;101590.31;;;12.88;100.00
59337;BME280;45115;52.002;4.686;2023-05-22T04:16:22;101586.28;;;12.92;100.00
59337;BME280;45115;52.002;4.686;2023-05-22T04:18:48;101594.09;;;12.96;100.00
59337;BME280;45115;52.002;4.686;2023-05-22T04:21:16;101590.81;;;13.02;100.00
59337;BME280;45115;52.002;4.686;2023-05-22T04:23:44;101598.47;;;12.99;100.00
59337;BME280;45115;52.002;4.686;2023-05-22T04:26:11;101599.81;;;13.04;100.00
59337;BME280;45115;52.002;4.686;2023-05-22T04:28:38;101606.47;;;13.11;100.00
59337;BME280;45115;52.002;4.686;2023-05-22T04:31:06;101597.06;;;13.14;100.00
59337;BME280;45115;52.002;4.686;2023-05-22T04:33:32;101596.63;;;13.18;100.00
59337;BME280;45115;52.002;4.686;2023-05-22T04:35:59;101597.38;;;13.20;100.00
59337;BME280;45115;52.002;4.686;2023-05-22T04:38:28;101583.63;;;13.20;100.00
59337;BME280;45115;52.002;4.686;2023-05-22T04:40:54;101599.38;;;13.28;100.00
59337;BME280;45115;52.002;4.686;2023-05-22T04:43:22;101598.09;;;13.22;100.00
59337;BME280;45115;52.002;4.686;2023-05-22T04:45:50;101597.22;;;13.31;100.00
59337;BME280;45115;52.002;4.686;2023-05-22T04:48:17;101602.72;;;13.41;100.00
59337;BME280;45115;52.002;4.686;2023-05-22T04:50:44;101609.25;;;13.50;100.00
59337;BME280;45115;52.002;4.686;2023-05-22T04:53:11;101607.22;;;13.52;100.00
59337;BME280;45115;52.002;4.686;2023-05-22T04:55:40;101614.75;;;13.59;100.00
59337;BME280;45115;52.002;4.686;2023-05-22T04:58:06;101603.56;;;13.70;100.00
59337;BME280;45115;52.002;4.686;2023-05-22T05:00:33;101605.59;;;13.78;100.00
59337;BME280;45115;52.002;4.686;2023-05-22T05:03:00;101610.38;;;13.76;99.76
59337;BME280;45115;52.002;4.686;2023-05-22T05:05:26;101614.56;;;13.89;99.06
59337;BME280;45115;52.002;4.686;2023-05-22T05:07:54;101614.84;;;13.96;98.63
59337;BME280;45115;52.002;4.686;2023-05-22T05:10:22;101613.78;;;14.16;97.77
59337;BME280;45115;52.002;4.686;2023-05-22T05:12:50;101615.34;;;14.37;97.17
59337;BME280;45115;52.002;4.686;2023-05-22T05:15:17;101619.25;;;14.35;97.00
59337;BME280;45115;52.002;4.686;2023-05-22T05:17:43;101622.72;;;14.46;96.25
59337;BME280;45115;52.002;4.686;2023-05-22T05:20:10;101622.72;;;14.74;96.28
59337;BME280;45115;52.002;4.686;2023-05-22T05:22:39;101624.13;;;14.50;95.19
59337;BME280;45115;52.002;4.686;2023-05-22T05:25:08;101628.34;;;14.54;95.41
59337;BME280;45115;52.002;4.686;2023-05-22T05:27:35;101620.94;;;14.55;95.20
59337;BME280;45115;52.002;4.686;2023-05-22T05:30:04;101625.97;;;14.60;95.66
59337;BME280;45115;52.002;4.686;2023-05-22T05:32:59;101629.56;;;14.70;94.54
59337;BME280;45115;52.002;4.686;2023-05-22T05:35:34;101627.25;;;14.75;94.27
59337;BME280;45115;52.002;4.686;2023-05-22T05:38:04;101624.34;;;14.67;95.14
59337;BME280;45115;52.002;4.686;2023-05-22T05:40:32;101633.66;;;14.93;93.92
59337;BME280;45115;52.002;4.686;2023-05-22T05:42:59;101626.41;;;14.92;93.61
59337;BME280;45115;52.002;4.686;2023-05-22T05:45:28;101624.97;;;15.15;92.72
59337;BME280;45115;52.002;4.686;2023-05-22T05:47:55;101616.50;;;15.43;91.59
59337;BME280;45115;52.002;4.686;2023-05-22T05:50:23;101626.34;;;15.81;89.78
59337;BME280;45115;52.002;4.686;2023-05-22T05:52:50;101614.41;;;15.81;89.03
59337;BME280;45115;52.002;4.686;2023-05-22T05:55:18;101625.63;;;15.79;88.49
59337;BME280;45115;52.002;4.686;2023-05-22T05:57:46;101632.16;;;15.78;88.69
59337;BME280;45115;52.002;4.686;2023-05-22T06:00:19;101627.34;;;15.80;88.69
59337;BME280;45115;52.002;4.686;2023-05-22T06:02:50;101644.97;;;15.79;87.99
59337;BME280;45115;52.002;4.686;2023-05-22T06:05:27;101628.19;;;15.73;89.22
59337;BME280;45115;52.002;4.686;2023-05-22T06:08:03;101646.41;;;15.83;88.75
59337;BME280;45115;52.002;4.686;2023-05-22T06:10:30;101649.28;;;15.46;91.00
59337;BME280;45115;52.002;4.686;2023-05-22T06:13:08;101647.06;;;15.32;91.94
59337;BME280;45115;52.002;4.686;2023-05-22T06:15:35;101650.84;;;15.31;91.72
59337;BME280;45115;52.002;4.686;2023-05-22T06:18:04;101648.44;;;15.46;91.14
59337;BME280;45115;52.002;4.686;2023-05-22T06:20:31;101649.84;;;15.50;90.78
59337;BME280;45115;52.002;4.686;2023-05-22T06:22:57;101661.44;;;15.36;91.60
59337;BME280;45115;52.002;4.686;2023-05-22T06:25:24;101654.53;;;15.49;91.13
59337;BME280;45115;52.002;4.686;2023-05-22T06:27:55;101658.63;;;15.81;89.59
59337;BME280;45115;52.002;4.686;2023-05-22T06:30:21;101659.50;;;15.99;89.27
59337;BME280;45115;52.002;4.686;2023-05-22T06:32:48;101652.94;;;15.82;89.84
59337;BME280;45115;52.002;4.686;2023-05-22T06:35:18;101654.81;;;15.99;88.12
59337;BME280;45115;52.002;4.686;2023-05-22T06:37:46;101662.53;;;16.13;88.18
59337;BME280;45115;52.002;4.686;2023-05-22T06:40:13;101662.69;;;16.12;87.95
59337;BME280;45115;52.002;4.686;2023-05-22T06:42:48;101656.94;;;16.31;87.14
59337;BME280;45115;52.002;4.686;2023-05-22T06:45:33;101664.28;;;16.40;86.62
59337;BME280;45115;52.002;4.686;2023-05-22T06:48:28;101660.44;;;16.33;87.32
59337;BME280;45115;52.002;4.686;2023-05-22T06:51:08;101650.59;;;16.56;85.88
59337;BME280;45115;52.002;4.686;2023-05-22T06:53:38;101654.00;;;16.76;85.31
59337;BME280;45115;52.002;4.686;2023-05-22T06:56:10;101652.78;;;16.78;85.80
59337;BME280;45115;52.002;4.686;2023-05-22T06:58:56;101657.75;;;17.00;84.63
59337;BME280;45115;52.002;4.686;2023-05-22T07:01:40;101656.94;;;17.16;84.16
59337;BME280;45115;52.002;4.686;2023-05-22T07:04:11;101659.06;;;17.30;83.54
59337;BME280;45115;52.002;4.686;2023-05-22T07:06:53;101663.97;;;17.60;82.87
59337;BME280;45115;52.002;4.686;2023-05-22T07:09:20;101663.84;;;17.69;81.41
59337;BME280;45115;52.002;4.686;2023-05-22T07:11:47;101666.44;;;17.71;81.68
59337;BME280;45115;52.002;4.686;2023-05-22T07:14:15;101668.88;;;17.90;80.77
59337;BME280;45115;52.002;4.686;2023-05-22T07:16:51;101665.25;;;17.90;81.63
59337;BME280;45115;52.002;4.686;2023-05-22T07:19:26;101670.81;;;18.30;80.81
59337;BME280;45115;52.002;4.686;2023-05-22T07:21:57;101678.44;;;18.44;79.43
59337;BME280;45115;52.002;4.686;2023-05-22T07:24:25;101680.84;;;18.63;78.27
59337;BME280;45115;52.002;4.686;2023-05-22T07:26:52;101674.31;;;18.95;77.22
59337;BME280;45115;52.002;4.686;2023-05-22T07:29:19;101679.03;;;19.25;76.18
59337;BME280;45115;52.002;4.686;2023-05-22T07:31:48;101678.75;;;19.81;73.30
59337;BME280;45115;52.002;4.686;2023-05-22T07:34:15;101677.41;;;19.99;72.52
59337;BME280;45115;52.002;4.686;2023-05-22T07:36:43;101674.56;;;20.30;71.78
59337;BME280;45115;52.002;4.686;2023-05-22T07:39:11;101676.94;;;20.70;69.99
59337;BME280;45115;52.002;4.686;2023-05-22T07:41:46;101675.66;;;21.60;68.38
59337;BME280;45115;52.002;4.686;2023-05-22T07:44:14;101672.41;;;22.41;63.89
59337;BME280;45115;52.002;4.686;2023-05-22T07:46:42;101666.88;;;23.03;62.01
59337;BME280;45115;52.002;4.686;2023-05-22T07:49:16;101666.47;;;23.06;61.24
59337;BME280;45115;52.002;4.686;2023-05-22T07:51:45;101666.91;;;23.09;61.07
59337;BME280;45115;52.002;4.686;2023-05-22T07:54:15;101669.88;;;23.01;60.16
59337;BME280;45115;52.002;4.686;2023-05-22T07:56:45;101677.47;;;23.14;60.98
59337;BME280;45115;52.002;4.686;2023-05-22T07:59:14;101673.41;;;22.82;61.41
59337;BME280;45115;52.002;4.686;2023-05-22T08:01:43;101670.97;;;23.00;60.34
59337;BME280;45115;52.002;4.686;2023-05-22T08:04:10;101667.13;;;22.74;61.54
59337;BME280;45115;52.002;4.686;2023-05-22T08:06:37;101676.28;;;22.40;62.99
59337;BME280;45115;52.002;4.686;2023-05-22T08:09:04;101672.66;;;22.67;63.09
59337;BME280;45115;52.002;4.686;2023-05-22T08:11:33;101676.19;;;23.51;59.76
59337;BME280;45115;52.002;4.686;2023-05-22T08:14:01;101679.00;;;23.57;58.21
59337;BME280;45115;52.002;4.686;2023-05-22T08:16:28;101676.19;;;24.17;57.27
59337;BME280;45115;52.002;4.686;2023-05-22T08:18:56;101677.03;;;24.18;57.58
59337;BME280;45115;52.002;4.686;2023-05-22T08:21:22;101672.59;;;23.76;58.39
59337;BME280;45115;52.002;4.686;2023-05-22T08:23:49;101670.66;;;23.23;59.73
59337;BME280;45115;52.002;4.686;2023-05-22T08:26:16;101676.56;;;23.41;59.47
59337;BME280;45115;52.002;4.686;2023-05-22T08:28:44;101669.72;;;24.30;57.03
59337;BME280;45115;52.002;4.686;2023-05-22T08:31:10;101670.03;;;23.75;57.64
59337;BME280;45115;52.002;4.686;2023-05-22T08:33:37;101671.34;;;23.79;58.71
59337;BME280;45115;52.002;4.686;2023-05-22T08:36:05;101661.28;;;24.95;55.09
59337;BME280;45115;52.002;4.686;2023-05-22T08:38:31;101658.97;;;24.60;56.00
59337;BME280;45115;52.002;4.686;2023-05-22T08:40:58;101654.19;;;24.93;54.96
59337;BME280;45115;52.002;4.686;2023-05-22T08:43:26;101652.47;;;24.26;57.25
59337;BME280;45115;52.002;4.686;2023-05-22T08:45:59;101658.75;;;24.61;56.73
59337;BME280;45115;52.002;4.686;2023-05-22T08:48:28;101653.78;;;24.57;55.82
59337;BME280;45115;52.002;4.686;2023-05-22T08:50:57;101642.97;;;24.99;55.38
59337;BME280;45115;52.002;4.686;2023-05-22T08:53:25;101632.03;;;24.72;55.13
59337;BME280;45115;52.002;4.686;2023-05-22T08:55:53;101656.81;;;24.49;55.85
59337;BME280;45115;52.002;4.686;2023-05-22T08:58:20;101639.97;;;24.81;53.41
59337;BME280;45115;52.002;4.686;2023-05-22T09:00:47;101648.50;;;25.12;52.90
59337;BME280;45115;52.002;4.686;2023-05-22T09:03:16;101653.13;;;24.09;57.84
59337;BME280;45115;52.002;4.686;2023-05-22T09:05:45;101645.16;;;24.91;56.29
59337;BME280;45115;52.002;4.686;2023-05-22T09:08:13;101647.50;;;24.94;54.92
59337;BME280;45115;52.002;4.686;2023-05-22T09:10:40;101642.97;;;24.99;54.73
59337;BME280;45115;52.002;4.686;2023-05-22T09:13:08;101644.94;;;24.01;58.48
59337;BME280;45115;52.002;4.686;2023-05-22T09:15:36;101639.34;;;24.60;56.71
59337;BME280;45115;52.002;4.686;2023-05-22T09:18:04;101641.91;;;24.02;58.85
59337;BME280;45115;52.002;4.686;2023-05-22T09:20:34;101633.53;;;24.09;59.99
59337;BME280;45115;52.002;4.686;2023-05-22T09:23:09;101647.31;;;24.30;58.49
59337;BME280;45115;52.002;4.686;2023-05-22T09:25:36;101647.47;;;23.96;60.18
59337;BME280;45115;52.002;4.686;2023-05-22T09:28:03;101648.25;;;23.64;60.92
59337;BME280;45115;52.002;4.686;2023-05-22T09:30:33;101644.09;;;24.13;59.28
59337;BME280;45115;52.002;4.686;2023-05-22T09:33:00;101646.66;;;24.48;57.11
59337;BME280;45115;52.002;4.686;2023-05-22T09:35:27;101632.91;;;24.33;57.77
59337;BME280;45115;52.002;4.686;2023-05-22T09:37:58;101644.53;;;24.56;58.29
59337;BME280;45115;52.002;4.686;2023-05-22T09:40:26;101656.78;;;24.03;59.29
59337;BME280;45115;52.002;4.686;2023-05-22T09:42:52;101649.06;;;24.31;58.09
59337;BME280;45115;52.002;4.686;2023-05-22T09:45:20;101651.97;;;23.97;60.33
59337;BME280;45115;52.002;4.686;2023-05-22T09:47:48;101651.19;;;24.55;56.82
59337;BME280;45115;52.002;4.686;2023-05-22T09:50:15;101645.81;;;24.34;59.91
59337;BME280;45115;52.002;4.686;2023-05-22T09:52:44;101651.81;;;24.11;58.95
59337;BME280;45115;52.002;4.686;2023-05-22T09:55:12;101651.19;;;24.22;58.06
59337;BME280;45115;52.002;4.686;2023-05-22T09:57:41;101648.19;;;24.24;58.54
59337;BME280;45115;52.002;4.686;2023-05-22T10:00:11;101647.09;;;24.25;57.91
59337;BME280;45115;52.002;4.686;2023-05-22T10:02:45;101624.28;;;24.35;57.47
59337;BME280;45115;52.002;4.686;2023-05-22T10:05:13;101639.94;;;24.88;55.52
59337;BME280;45115;52.002;4.686;2023-05-22T10:07:47;101631.16;;;24.71;56.55
59337;BME280;45115;52.002;4.686;2023-05-22T10:10:19;101633.31;;;24.43;59.22
59337;BME280;45115;52.002;4.686;2023-05-22T10:12:50;101642.38;;;24.39;56.95
59337;BME280;45115;52.002;4.686;2023-05-22T10:15:18;101640.78;;;24.95;55.22
59337;BME280;45115;52.002;4.686;2023-05-22T10:17:47;101638.25;;;24.61;57.05
59337;BME280;45115;52.002;4.686;2023-05-22T10:20:14;101647.09;;;24.71;57.67
59337;BME280;45115;52.002;4.686;2023-05-22T10:22:41;101641.06;;;24.80;57.73
59337;BME280;45115;52.002;4.686;2023-05-22T10:25:08;101632.44;;;25.52;55.69
59337;BME280;45115;52.002;4.686;2023-05-22T10:27:37;101641.72;;;25.90;55.61
59337;BME280;45115;52.002;4.686;2023-05-22T10:30:19;101634.28;;;25.71;55.85
59337;BME280;45115;52.002;4.686;2023-05-22T10:33:12;101629.66;;;25.83;53.91
59337;BME280;45115;52.002;4.686;2023-05-22T10:35:43;101631.06;;;25.68;54.30
59337;BME280;45115;52.002;4.686;2023-05-22T10:38:49;101627.81;;;26.08;53.16
59337;BME280;45115;52.002;4.686;2023-05-22T10:41:18;101622.25;;;26.76;51.53
59337;BME280;45115;52.002;4.686;2023-05-22T10:43:49;101617.88;;;26.30;52.68
59337;BME280;45115;52.002;4.686;2023-05-22T10:46:17;101623.84;;;25.47;55.98
59337;BME280;45115;52.002;4.686;2023-05-22T10:48:44;101627.41;;;25.10;56.97
59337;BME280;45115;52.002;4.686;2023-05-22T10:51:12;101620.97;;;25.03;58.38
59337;BME280;45115;52.002;4.686;2023-05-22T10:53:41;101617.06;;;25.92;55.65
59337;BME280;45115;52.002;4.686;2023-05-22T10:56:10;101614.94;;;26.43;53.22
59337;BME280;45115;52.002;4.686;2023-05-22T10:58:37;101613.41;;;26.72;51.72
59337;BME280;45115;52.002;4.686;2023-05-22T11:01:13;101610.56;;;27.33;51.20
59337;BME280;45115;52.002;4.686;2023-05-22T11:03:53;101612.56;;;26.65;53.07
59337;BME280;45115;52.002;4.686;2023-05-22T11:06:29;101613.72;;;25.33;56.35
59337;BME280;45115;52.002;4.686;2023-05-22T11:08:56;101611.09;;;24.74;58.12
59337;BME280;45115;52.002;4.686;2023-05-22T11:11:24;101607.25;;;25.32;57.06
59337;BME280;45115;52.002;4.686;2023-05-22T11:13:51;101611.72;;;25.84;55.40
59337;BME280;45115;52.002;4.686;2023-05-22T11:16:19;101603.75;;;25.81;56.36
59337;BME280;45115;52.002;4.686;2023-05-22T11:18:46;101612.66;;;26.09;53.56
59337;BME280;45115;52.002;4.686;2023-05-22T11:21:13;101608.19;;;26.51;53.16
59337;BME280;45115;52.002;4.686;2023-05-22T11:23:41;101611.97;;;26.38;54.47
59337;BME280;45115;52.002;4.686;2023-05-22T11:26:18;101615.88;;;26.13;53.69
59337;BME280;45115;52.002;4.686;2023-05-22T11:28:50;101595.63;;;26.78;51.07
59337;BME280;45115;52.002;4.686;2023-05-22T11:31:19;101594.59;;;26.73;51.21
59337;BME280;45115;52.002;4.686;2023-05-22T11:33:48;101597.19;;;26.25;52.75
59337;BME280;45115;52.002;4.686;2023-05-22T11:36:15;101587.25;;;25.60;52.79
59337;BME280;45115;52.002;4.686;2023-05-22T11:38:42;101583.34;;;25.68;54.90
59337;BME280;45115;52.002;4.686;2023-05-22T11:41:09;101603.69;;;25.88;53.20
59337;BME280;45115;52.002;4.686;2023-05-22T11:43:37;101598.78;;;26.14;55.75
59337;BME280;45115;52.002;4.686;2023-05-22T11:46:08;101602.00;;;26.67;51.89
59337;BME280;45115;52.002;4.686;2023-05-22T11:48:39;101602.16;;;27.26;51.87
59337;BME280;45115;52.002;4.686;2023-05-22T11:51:06;101603.38;;;26.33;52.26
59337;BME280;45115;52.002;4.686;2023-05-22T11:53:33;101595.72;;;26.22;52.11
59337;BME280;45115;52.002;4.686;2023-05-22T11:56:01;101601.31;;;26.22;52.69
59337;BME280;45115;52.002;4.686;2023-05-22T11:58:28;101602.88;;;26.68;52.04
59337;BME280;45115;52.002;4.686;2023-05-22T12:00:59;101607.78;;;27.26;49.38
59337;BME280;45115;52.002;4.686;2023-05-22T12:03:27;101613.97;;;26.99;50.60
59337;BME280;45115;52.002;4.686;2023-05-22T12:05:55;101603.59;;;27.35;49.81
59337;BME280;45115;52.002;4.686;2023-05-22T12:08:23;101610.28;;;27.82;47.85
59337;BME280;45115;52.002;4.686;2023-05-22T12:10:51;101615.94;;;27.82;47.14
59337;BME280;45115;52.002;4.686;2023-05-22T12:13:23;101617.56;;;27.90;47.85
59337;BME280;45115;52.002;4.686;2023-05-22T12:15:52;101624.94;;;27.43;48.60
59337;BME280;45115;52.002;4.686;2023-05-22T12:18:18;101620.94;;;27.14;50.17
59337;BME280;45115;52.002;4.686;2023-05-22T12:20:45;101619.72;;;26.43;50.46
59337;BME280;45115;52.002;4.686;2023-05-22T12:23:19;101624.56;;;25.67;54.81
59337;BME280;45115;52.002;4.686;2023-05-22T12:25:46;101628.06;;;25.56;53.27
59337;BME280;45115;52.002;4.686;2023-05-22T12:28:13;101621.94;;;25.72;54.06
59337;BME280;45115;52.002;4.686;2023-05-22T12:30:40;101621.44;;;24.74;57.00
59337;BME280;45115;52.002;4.686;2023-05-22T12:33:11;101620.84;;;24.26;57.92
59337;BME280;45115;52.002;4.686;2023-05-22T12:35:39;101630.88;;;23.27;62.61
59337;BME280;45115;52.002;4.686;2023-05-22T12:38:06;101633.94;;;24.52;60.10
59337;BME280;45115;52.002;4.686;2023-05-22T12:40:35;101625.97;;;24.81;57.58
59337;BME280;45115;52.002;4.686;2023-05-22T12:43:02;101634.81;;;24.00;59.69
59337;BME280;45115;52.002;4.686;2023-05-22T12:45:29;101633.09;;;24.58;57.80
59337;BME280;45115;52.002;4.686;2023-05-22T12:47:55;101629.97;;;25.11;56.89
59337;BME280;45115;52.002;4.686;2023-05-22T12:50:22;101624.97;;;25.20;54.92
59337;BME280;45115;52.002;4.686;2023-05-22T12:52:49;101640.22;;;25.50;54.88
59337;BME280;45115;52.002;4.686;2023-05-22T12:55:15;101638.25;;;24.48;57.21